createdAt,value
2023-04-09T08:00:53.688Z,57.71
2023-04-09T08:01:56.558Z,58.19
2023-04-09T08:03:00.609Z,58.23
2023-04-09T08:04:04.093Z,58.21
2023-04-09T08:05:08.539Z,58.09
2023-04-09T08:06:11.032Z,57.99
2023-04-09T08:07:14.454Z,57.73
2023-04-09T08:08:16.895Z,57.65
2023-04-09T08:09:21.444Z,57.53
2023-04-09T08:10:24.924Z,57.48
2023-04-09T08:11:27.530Z,57.19
2023-04-09T08:12:31.108Z,56.99
2023-04-09T08:13:33.548Z,56.72
2023-04-09T08:14:37.324Z,56.71
2023-04-09T08:15:40.651Z,56.46
2023-04-09T08:16:46.324Z,56.27
2023-04-09T08:17:50.060Z,56.30
2023-04-09T08:18:52.844Z,55.97
2023-04-09T08:19:56.525Z,55.80
2023-04-09T08:20:59.858Z,55.45
2023-04-09T08:22:02.633Z,55.53
2023-04-09T08:23:06.108Z,55.45
2023-04-09T08:24:08.916Z,55.30
2023-04-09T08:25:12.260Z,54.94
2023-04-09T08:26:14.605Z,54.83
2023-04-09T08:27:18.087Z,55.30
2023-04-09T08:28:22.294Z,54.60
2023-04-09T08:29:25.643Z,54.68
2023-04-09T08:30:28.313Z,54.41
2023-04-09T08:31:32.023Z,54.33
2023-04-09T08:32:37.578Z,54.40
2023-04-09T08:33:40.914Z,54.40
2023-04-09T08:34:44.580Z,54.06
2023-04-09T08:35:46.997Z,54.05
2023-04-09T08:36:51.339Z,54.07
2023-04-09T08:37:55.630Z,53.85
2023-04-09T08:39:00.651Z,54.12
2023-04-09T08:40:03.685Z,53.94
2023-04-09T08:41:07.118Z,53.79
2023-04-09T08:42:12.891Z,53.82
2023-04-09T08:43:17.990Z,53.83
2023-04-09T08:44:22.148Z,53.72
2023-04-09T08:45:25.943Z,53.29
2023-04-09T08:46:29.748Z,53.38
2023-04-09T08:47:35.335Z,53.19
2023-04-09T08:48:42.731Z,53.43
2023-04-09T08:49:46.173Z,53.23
2023-04-09T08:50:48.623Z,53.23
2023-04-09T08:51:52.435Z,53.04
2023-04-09T08:52:56.756Z,53.28
2023-04-09T08:54:04.448Z,53.25
2023-04-09T08:55:12.607Z,53.00
2023-04-09T08:56:16.552Z,53.32
2023-04-09T08:57:20.287Z,53.57
2023-04-09T08:58:23.822Z,53.06
2023-04-09T08:59:27.342Z,52.93
2023-04-09T09:00:29.867Z,53.06
2023-04-09T09:01:36.088Z,52.79
2023-04-09T09:02:40.006Z,53.08
2023-04-09T09:03:55.602Z,53.18
2023-04-09T09:05:01.104Z,53.00
2023-04-09T09:06:03.900Z,53.14
2023-04-09T09:07:08.163Z,53.24
2023-04-09T09:08:13.000Z,52.97
2023-04-09T09:09:18.956Z,53.33
2023-04-09T09:10:21.797Z,52.97
2023-04-09T09:11:30.451Z,53.04
2023-04-09T09:12:35.690Z,52.93
2023-04-09T09:13:39.057Z,52.84
2023-04-09T09:14:51.452Z,52.83
2023-04-09T09:15:56.547Z,52.62
2023-04-09T09:17:08.537Z,52.46
2023-04-09T09:18:11.055Z,52.41
2023-04-09T09:19:31.948Z,51.78
2023-04-09T09:20:34.701Z,51.81
2023-04-09T09:21:38.715Z,51.54
2023-04-09T09:22:55.076Z,51.55
2023-04-09T09:23:59.722Z,51.47
2023-04-09T09:25:02.582Z,51.48
2023-04-09T09:26:13.609Z,51.55
2023-04-09T09:27:37.139Z,51.51
2023-04-09T09:28:41.366Z,51.47
2023-04-09T09:29:45.995Z,51.38
2023-04-09T09:30:49.551Z,51.41
2023-04-09T09:31:53.876Z,51.32
2023-04-09T09:33:08.133Z,51.17
2023-04-09T09:34:11.941Z,51.08
2023-04-09T09:35:15.727Z,50.97
2023-04-09T09:36:33.231Z,51.31
2023-04-09T09:37:35.655Z,50.94
2023-04-09T09:38:56.267Z,51.04
2023-04-09T09:40:00.037Z,51.07
2023-04-09T09:41:18.612Z,51.18
2023-04-09T09:42:22.191Z,51.22
2023-04-09T09:43:24.886Z,51.38
2023-04-09T09:44:35.003Z,51.15
2023-04-09T09:45:38.057Z,51.74
2023-04-09T09:46:42.668Z,51.51
2023-04-09T09:47:46.718Z,51.47
2023-04-09T09:48:50.366Z,51.76
2023-04-09T09:49:54.678Z,51.76
2023-04-09T09:50:59.701Z,52.14
2023-04-09T09:52:08.310Z,52.70
2023-04-09T09:53:12.169Z,52.95
2023-04-09T09:54:19.368Z,54.11
2023-04-09T09:55:24.466Z,54.64
2023-04-09T09:56:33.602Z,55.12
2023-04-09T09:57:41.812Z,55.51
2023-04-09T09:58:54.898Z,55.56
2023-04-09T10:00:03.255Z,56.20
2023-04-09T10:01:11.353Z,56.21
2023-04-09T10:02:21.194Z,56.79
2023-04-09T10:03:27.644Z,56.86
2023-04-09T10:04:34.975Z,56.92
2023-04-09T10:05:39.266Z,56.93
2023-04-09T10:06:46.129Z,56.89
2023-04-09T10:07:50.867Z,57.12
2023-04-09T10:08:58.326Z,57.04
2023-04-09T10:10:03.768Z,56.86
2023-04-09T10:11:08.029Z,56.96
2023-04-09T10:12:12.237Z,56.78
2023-04-09T10:13:21.877Z,56.71
2023-04-09T10:14:26.194Z,56.72
2023-04-09T10:15:30.077Z,56.73
2023-04-09T10:16:34.896Z,56.56
2023-04-09T10:17:38.963Z,56.59
2023-04-09T10:18:43.913Z,56.30
2023-04-09T10:19:55.956Z,56.32
2023-04-09T10:21:02.105Z,56.73
2023-04-09T10:22:11.347Z,57.27
2023-04-09T10:23:21.732Z,58.68
2023-04-09T10:24:25.879Z,59.68
2023-04-09T10:25:28.810Z,60.82
2023-04-09T10:26:35.605Z,61.43
2023-04-09T10:27:38.173Z,61.99
2023-04-09T10:28:41.841Z,62.58
2023-04-09T10:29:45.534Z,63.06
2023-04-09T10:30:49.149Z,63.28
2023-04-09T10:31:53.189Z,63.70
2023-04-09T10:32:56.665Z,64.20
2023-04-09T10:34:05.268Z,64.61
2023-04-09T10:35:11.319Z,64.81
2023-04-09T10:36:13.699Z,65.07
2023-04-09T10:37:22.705Z,65.23
2023-04-09T10:38:37.308Z,65.46
2023-04-09T10:39:44.346Z,65.80
2023-04-09T10:40:51.008Z,65.83
2023-04-09T10:41:56.064Z,66.02
2023-04-09T10:42:59.764Z,66.07
2023-04-09T10:44:07.893Z,66.34
2023-04-09T10:45:12.572Z,66.32
2023-04-09T10:46:29.091Z,66.35
2023-04-09T10:47:37.375Z,66.40
2023-04-09T10:48:41.099Z,66.37
2023-04-09T10:49:45.045Z,66.58
2023-04-09T10:50:51.456Z,66.51
2023-04-09T10:52:02.402Z,66.61
2023-04-09T10:53:07.432Z,66.53
2023-04-09T10:54:46.489Z,66.61
2023-04-09T10:55:51.242Z,66.47
2023-04-09T10:57:13.923Z,66.52
2023-04-09T10:58:17.345Z,66.47
2023-04-09T10:59:19.752Z,66.54
2023-04-09T11:00:23.290Z,66.40
2023-04-09T11:01:28.417Z,65.99
2023-04-09T11:02:49.234Z,64.93
2023-04-09T11:04:10.810Z,64.60
2023-04-09T11:05:20.361Z,64.26
2023-04-09T11:06:24.640Z,63.82
2023-04-09T11:07:30.673Z,63.68
2023-04-09T11:08:36.355Z,63.13
2023-04-09T11:09:38.697Z,63.17
2023-04-09T11:10:44.739Z,62.94
2023-04-09T11:11:54.373Z,62.58
2023-04-09T11:12:56.712Z,62.58
2023-04-09T11:14:01.666Z,62.43
2023-04-09T11:15:05.065Z,62.19
2023-04-09T11:16:08.666Z,62.07
2023-04-09T11:17:11.133Z,62.11
2023-04-09T11:18:21.938Z,61.92
2023-04-09T11:19:24.524Z,61.82
2023-04-09T11:20:28.376Z,61.90
2023-04-09T11:21:31.893Z,61.91
2023-04-09T11:22:34.657Z,62.01
2023-04-09T11:23:39.834Z,61.78
2023-04-09T11:24:42.815Z,61.97
2023-04-09T11:25:51.172Z,62.03
2023-04-09T11:26:56.053Z,61.91
2023-04-09T11:27:59.857Z,62.06
2023-04-09T11:29:06.562Z,62.15
2023-04-09T11:30:10.761Z,62.26
2023-04-09T11:31:14.684Z,62.34
2023-04-09T11:32:17.269Z,62.28
2023-04-09T11:33:20.984Z,62.21
2023-04-09T11:34:28.060Z,62.33
2023-04-09T11:35:31.506Z,62.50
2023-04-09T11:36:35.952Z,62.44
2023-04-09T11:37:39.819Z,62.57
2023-04-09T11:38:44.542Z,62.43
2023-04-09T11:39:47.134Z,62.55
2023-04-09T11:40:51.553Z,62.46
2023-04-09T11:41:54.266Z,62.61
2023-04-09T11:42:58.041Z,62.54
2023-04-09T11:44:03.478Z,62.63
2023-04-09T11:45:07.905Z,62.63
2023-04-09T11:46:11.664Z,62.67
2023-04-09T11:47:14.956Z,62.82
2023-04-09T11:48:19.474Z,62.41
2023-04-09T11:49:22.878Z,62.82
2023-04-09T11:50:26.850Z,62.79
2023-04-09T11:51:31.728Z,62.74
2023-04-09T11:52:36.010Z,62.22
2023-04-09T11:53:39.408Z,61.32
2023-04-09T11:54:43.474Z,61.00
2023-04-09T11:55:49.336Z,59.53
2023-04-09T11:56:56.014Z,58.95
2023-04-09T11:58:02.109Z,58.26
2023-04-09T11:59:04.643Z,58.08
2023-04-09T12:00:11.169Z,57.45
2023-04-09T12:01:15.655Z,57.48
2023-04-09T12:02:19.096Z,57.06
2023-04-09T12:03:30.112Z,56.72
2023-04-09T12:04:33.177Z,56.82
2023-04-09T12:05:39.195Z,56.56
2023-04-09T12:06:43.697Z,56.60
2023-04-09T12:07:55.686Z,56.54
2023-04-09T12:09:00.639Z,56.55
2023-04-09T12:10:10.147Z,56.45
2023-04-09T12:11:16.526Z,56.43
2023-04-09T12:12:19.582Z,56.51
2023-04-09T12:13:23.368Z,56.40
2023-04-09T12:14:25.822Z,56.39
2023-04-09T12:15:33.635Z,56.30
2023-04-09T12:16:37.509Z,56.41
2023-04-09T12:17:40.078Z,56.35
2023-04-09T12:18:43.559Z,56.65
2023-04-09T12:19:49.442Z,56.58
2023-04-09T12:20:52.802Z,56.33
2023-04-09T12:21:58.874Z,56.41
2023-04-09T12:23:03.979Z,56.33
2023-04-09T12:24:07.376Z,56.25
2023-04-09T12:25:11.508Z,56.63
2023-04-09T12:26:14.889Z,56.67
2023-04-09T12:27:17.286Z,56.91
2023-04-09T12:28:20.878Z,56.63
2023-04-09T12:29:23.340Z,56.57
2023-04-09T12:30:27.307Z,56.77
2023-04-09T12:31:29.759Z,56.66
2023-04-09T12:32:33.202Z,56.68
2023-04-09T12:33:38.935Z,56.81
2023-04-09T12:34:41.961Z,56.76
2023-04-09T12:35:45.364Z,56.83
2023-04-09T12:36:48.540Z,56.79
2023-04-09T12:37:52.906Z,56.80
2023-04-09T12:38:55.858Z,56.41
2023-04-09T12:39:59.163Z,56.95
2023-04-09T12:41:03.815Z,56.82
2023-04-09T12:42:06.749Z,56.96
2023-04-09T12:43:10.569Z,56.95
2023-04-09T12:44:13.014Z,56.82
2023-04-09T12:45:17.997Z,56.72
2023-04-09T12:46:21.445Z,56.83
2023-04-09T12:47:24.970Z,56.62
2023-04-09T12:48:27.741Z,56.91
2023-04-09T12:49:31.326Z,56.75
2023-04-09T12:50:34.777Z,56.72
2023-04-09T12:51:37.586Z,56.82
2023-04-09T12:52:41.167Z,56.47
2023-04-09T12:53:43.905Z,56.80
2023-04-09T12:54:48.802Z,56.75
2023-04-09T12:55:52.457Z,57.09
2023-04-09T12:56:56.501Z,56.90
2023-04-09T12:58:00.127Z,57.20
2023-04-09T12:59:02.517Z,56.97
2023-04-09T13:00:07.852Z,56.77
2023-04-09T13:01:13.249Z,56.89
2023-04-09T13:02:16.027Z,56.77
2023-04-09T13:03:19.844Z,56.78
2023-04-09T13:04:22.435Z,56.60
2023-04-09T13:05:26.408Z,56.76
2023-04-09T13:06:28.881Z,56.87
2023-04-09T13:07:32.358Z,56.93
2023-04-09T13:08:34.865Z,56.91
2023-04-09T13:09:38.433Z,57.19
2023-04-09T13:10:41.204Z,57.24
2023-04-09T13:11:44.621Z,57.44
2023-04-09T13:12:49.186Z,57.39
2023-04-09T13:13:52.444Z,57.09
2023-04-09T13:14:56.676Z,56.68
2023-04-09T13:15:59.058Z,56.30
2023-04-09T13:17:02.759Z,55.90
2023-04-09T13:18:06.585Z,55.89
2023-04-09T13:19:10.095Z,55.51
2023-04-09T13:20:13.692Z,55.47
2023-04-09T13:21:18.893Z,55.12
2023-04-09T13:22:22.943Z,55.02
2023-04-09T13:23:26.201Z,55.15
2023-04-09T13:24:29.597Z,54.98
2023-04-09T13:25:32.947Z,54.91
2023-04-09T13:26:35.848Z,54.85
2023-04-09T13:27:39.589Z,54.93
2023-04-09T13:28:43.650Z,54.98
2023-04-09T13:29:46.962Z,54.64
2023-04-09T13:30:49.459Z,54.87
2023-04-09T13:31:53.256Z,54.95
2023-04-09T13:32:55.985Z,54.95
2023-04-09T13:34:00.168Z,54.86
2023-04-09T13:35:03.583Z,54.76
2023-04-09T13:36:06.906Z,54.90
2023-04-09T13:37:10.497Z,54.90
2023-04-09T13:38:12.876Z,54.99
2023-04-09T13:39:16.280Z,54.76
2023-04-09T13:40:19.787Z,54.71
2023-04-09T13:41:28.353Z,54.78
2023-04-09T13:42:31.669Z,54.86
2023-04-09T13:43:35.056Z,54.71
2023-04-09T13:44:40.706Z,54.78
2023-04-09T13:45:44.220Z,54.84
2023-04-09T13:46:46.689Z,54.72
2023-04-09T13:47:50.200Z,54.58
2023-04-09T13:48:53.015Z,54.49
2023-04-09T13:49:56.515Z,54.42
2023-04-09T13:50:59.031Z,54.00
2023-04-09T13:52:04.545Z,54.27
2023-04-09T13:53:07.867Z,54.25
2023-04-09T13:54:11.340Z,53.95
2023-04-09T13:55:15.119Z,54.06
2023-04-09T13:56:17.599Z,53.94
2023-04-09T13:57:21.419Z,53.82
2023-04-09T13:58:27.324Z,54.09
2023-04-09T13:59:31.136Z,53.82
2023-04-09T14:00:36.169Z,53.67
2023-04-09T14:01:41.044Z,53.92
2023-04-09T14:02:44.553Z,53.73
2023-04-09T14:03:48.084Z,53.91
2023-04-09T14:04:50.910Z,53.54
2023-04-09T14:05:54.292Z,53.68
2023-04-09T14:06:57.420Z,53.65
2023-04-09T14:08:01.851Z,53.77
2023-04-09T14:09:04.392Z,53.45
2023-04-09T14:10:09.304Z,53.43
2023-04-09T14:11:15.069Z,53.44
2023-04-09T14:12:18.471Z,53.04
2023-04-09T14:13:21.428Z,53.17
2023-04-09T14:14:24.924Z,53.15
2023-04-09T14:15:27.908Z,53.04
2023-04-09T14:16:33.075Z,53.14
2023-04-09T14:17:35.683Z,53.24
2023-04-09T14:18:40.067Z,52.97
2023-04-09T14:19:43.446Z,52.99
2023-04-09T14:20:47.281Z,53.03
2023-04-09T14:21:49.700Z,53.19
2023-04-09T14:22:53.059Z,52.69
2023-04-09T14:23:55.723Z,52.70
2023-04-09T14:24:59.547Z,52.66
2023-04-09T14:26:03.121Z,52.66
2023-04-09T14:27:06.874Z,52.56
2023-04-09T14:28:09.284Z,52.55
2023-04-09T14:29:12.731Z,52.32
2023-04-09T14:30:15.479Z,52.38
2023-04-09T14:31:21.639Z,52.21
2023-04-09T14:32:25.508Z,52.30
2023-04-09T14:33:29.041Z,52.01
2023-04-09T14:34:32.547Z,52.22
2023-04-09T14:35:35.158Z,51.96
2023-04-09T14:36:38.815Z,51.91
2023-04-09T14:37:41.597Z,51.96
2023-04-09T14:38:45.963Z,51.93
2023-04-09T14:39:48.336Z,52.01
2023-04-09T14:40:51.906Z,52.25
2023-04-09T14:41:57.136Z,52.77
2023-04-09T14:42:59.813Z,53.08
2023-04-09T14:44:03.248Z,53.35
2023-04-09T14:45:06.142Z,53.48
2023-04-09T14:46:11.989Z,53.66
2023-04-09T14:47:14.499Z,53.83
2023-04-09T14:48:20.178Z,53.91
2023-04-09T14:49:27.360Z,54.19
2023-04-09T14:50:32.469Z,54.39
2023-04-09T14:51:37.594Z,54.33
2023-04-09T14:52:40.198Z,54.50
2023-04-09T14:53:44.034Z,54.78
2023-04-09T14:54:46.690Z,54.85
2023-04-09T14:55:50.087Z,54.99
2023-04-09T14:56:53.468Z,55.13
2023-04-09T14:57:56.023Z,54.91
2023-04-09T14:58:59.777Z,55.06
2023-04-09T15:00:02.597Z,55.01
2023-04-09T15:01:08.416Z,54.82
2023-04-09T15:02:12.673Z,54.98
2023-04-09T15:03:16.345Z,54.48
2023-04-09T15:04:20.807Z,54.19
2023-04-09T15:05:24.277Z,53.47
2023-04-09T15:06:28.057Z,53.20
2023-04-09T15:07:30.700Z,52.81
2023-04-09T15:08:34.194Z,52.47
2023-04-09T15:09:37.612Z,52.04
2023-04-09T15:10:41.155Z,52.03
2023-04-09T15:11:43.578Z,51.62
2023-04-09T15:12:46.967Z,51.39
2023-04-09T15:13:49.355Z,51.43
2023-04-09T15:14:53.108Z,51.18
2023-04-09T15:15:55.749Z,51.03
2023-04-09T15:16:59.221Z,51.40
2023-04-09T15:18:06.040Z,51.82
2023-04-09T15:19:09.647Z,51.82
2023-04-09T15:20:16.111Z,51.89
2023-04-09T15:21:19.865Z,51.74
2023-04-09T15:22:22.336Z,51.80
2023-04-09T15:23:25.849Z,51.32
2023-04-09T15:24:28.280Z,51.20
2023-04-09T15:25:33.155Z,51.01
2023-04-09T15:26:35.679Z,50.90
2023-04-09T15:27:39.164Z,50.59
2023-04-09T15:28:41.922Z,50.40
2023-04-09T15:29:45.738Z,50.02
2023-04-09T15:30:48.079Z,49.75
2023-04-09T15:31:54.270Z,49.69
2023-04-09T15:32:56.896Z,49.57
2023-04-09T15:34:00.680Z,49.39
2023-04-09T15:35:10.439Z,49.20
2023-04-09T15:36:14.252Z,49.22
2023-04-09T15:37:18.323Z,49.10
2023-04-09T15:38:31.085Z,48.88
2023-04-09T15:39:35.230Z,48.97
2023-04-09T15:40:38.661Z,48.95
2023-04-09T15:41:41.034Z,48.82
2023-04-09T15:42:44.416Z,48.99
2023-04-09T15:43:47.728Z,49.26
2023-04-09T15:44:57.440Z,49.07
2023-04-09T15:46:12.163Z,48.99
2023-04-09T15:47:15.799Z,49.01
2023-04-09T15:48:22.317Z,48.99
2023-04-09T15:49:26.029Z,48.88
2023-04-09T15:50:30.209Z,49.13
2023-04-09T15:51:34.697Z,49.00
2023-04-09T15:52:41.862Z,49.31
2023-04-09T15:53:45.646Z,49.32
2023-04-09T15:54:49.021Z,49.18
2023-04-09T15:55:51.803Z,49.52
2023-04-09T15:56:55.223Z,49.74
2023-04-09T15:57:57.667Z,49.70
2023-04-09T15:59:02.224Z,49.67
2023-04-09T16:00:07.868Z,49.60
2023-04-09T16:01:13.370Z,49.63
2023-04-09T16:02:16.866Z,49.20
2023-04-09T16:03:19.620Z,49.31
2023-04-09T16:04:23.226Z,48.58
2023-04-09T16:05:25.795Z,49.03
2023-04-09T16:06:29.667Z,48.98
2023-04-09T16:07:33.398Z,49.20
2023-04-09T16:08:37.402Z,49.34
2023-04-09T16:09:46.224Z,49.40
2023-04-09T16:10:48.656Z,49.53
2023-04-09T16:11:52.198Z,49.81
2023-04-09T16:13:00.119Z,49.82
2023-04-09T16:14:04.007Z,49.99
2023-04-09T16:15:08.601Z,50.42
2023-04-09T16:16:12.272Z,50.60
2023-04-09T16:17:15.907Z,50.81
2023-04-09T16:18:19.906Z,51.17
2023-04-09T16:19:24.646Z,51.40
2023-04-09T16:20:27.128Z,51.49
2023-04-09T16:21:30.502Z,51.67
2023-04-09T16:22:35.447Z,51.55
2023-04-09T16:23:38.905Z,51.98
2023-04-09T16:24:42.249Z,52.18
2023-04-09T16:25:44.768Z,52.18
2023-04-09T16:26:48.212Z,51.96
2023-04-09T16:27:50.805Z,52.13
2023-04-09T16:28:54.367Z,52.22
2023-04-09T16:29:57.135Z,52.24
2023-04-09T16:31:01.076Z,52.44
2023-04-09T16:32:04.895Z,52.28
2023-04-09T16:33:09.391Z,52.03
2023-04-09T16:34:12.768Z,52.58
2023-04-09T16:35:15.151Z,52.47
2023-04-09T16:36:18.591Z,52.44
2023-04-09T16:37:21.018Z,52.52
2023-04-09T16:38:27.983Z,52.74
2023-04-09T16:39:30.540Z,52.36
2023-04-09T16:40:34.501Z,52.32
2023-04-09T16:41:38.560Z,52.59
2023-04-09T16:42:41.054Z,52.45
2023-04-09T16:43:46.558Z,52.40
2023-04-09T16:44:49.882Z,52.47
2023-04-09T16:45:53.685Z,52.38
2023-04-09T16:46:57.760Z,52.65
2023-04-09T16:48:00.659Z,52.76
2023-04-09T16:49:04.370Z,52.59
2023-04-09T16:50:10.623Z,52.47
2023-04-09T16:51:14.417Z,52.72
2023-04-09T16:52:18.040Z,52.81
2023-04-09T16:53:20.865Z,52.76
2023-04-09T16:54:25.709Z,52.46
2023-04-09T16:55:28.312Z,52.43
2023-04-09T16:56:31.715Z,52.55
2023-04-09T16:57:34.496Z,52.76
2023-04-09T16:58:38.290Z,52.56
2023-04-09T16:59:42.529Z,52.39
2023-04-09T17:00:47.743Z,52.44
2023-04-09T17:01:52.852Z,52.29
2023-04-09T17:02:57.936Z,52.21
2023-04-09T17:04:03.178Z,52.21
2023-04-09T17:05:06.570Z,52.07
2023-04-09T17:06:09.982Z,51.88
2023-04-09T17:07:13.140Z,51.99
2023-04-09T17:08:17.135Z,51.86
2023-04-09T17:09:20.003Z,51.92
2023-04-09T17:10:24.776Z,51.87
2023-04-09T17:11:27.235Z,51.70
2023-04-09T17:12:32.911Z,51.67
2023-04-09T17:13:36.257Z,51.78
2023-04-09T17:14:42.024Z,51.79
2023-04-09T17:15:46.098Z,51.89
2023-04-09T17:16:49.060Z,51.95
2023-04-09T17:17:53.890Z,51.65
2023-04-09T17:18:57.409Z,51.80
2023-04-09T17:20:01.734Z,51.54
2023-04-09T17:21:05.779Z,51.44
2023-04-09T17:22:09.399Z,51.31
2023-04-09T17:23:12.810Z,51.46
2023-04-09T17:24:15.756Z,51.71
2023-04-09T17:25:20.524Z,51.21
2023-04-09T17:26:24.905Z,50.71
2023-04-09T17:27:28.822Z,50.16
2023-04-09T17:28:32.328Z,49.82
2023-04-09T17:29:35.486Z,49.28
2023-04-09T17:30:39.151Z,49.13
2023-04-09T17:31:41.769Z,48.87
2023-04-09T17:32:45.143Z,48.57
2023-04-09T17:33:48.150Z,48.46
2023-04-09T17:34:52.852Z,48.28
2023-04-09T17:35:57.692Z,48.00
2023-04-09T17:37:00.437Z,47.74
2023-04-09T17:38:03.946Z,47.79
2023-04-09T17:39:06.618Z,47.70
2023-04-09T17:40:12.909Z,47.76
2023-04-09T17:41:15.929Z,47.46
2023-04-09T17:42:22.159Z,47.50
2023-04-09T17:43:24.930Z,47.46
2023-04-09T17:44:28.406Z,47.45
2023-04-09T17:45:31.747Z,47.29
2023-04-09T17:46:34.502Z,47.02
2023-04-09T17:47:39.225Z,47.23
2023-04-09T17:48:42.766Z,46.93
2023-04-09T17:49:46.045Z,47.06
2023-04-09T17:50:50.228Z,47.08
2023-04-09T17:51:53.654Z,47.13
2023-04-09T17:52:57.390Z,46.49
2023-04-09T17:53:59.785Z,46.72
2023-04-09T17:55:03.918Z,46.46
2023-04-09T17:56:07.078Z,46.48
2023-04-09T17:57:17.409Z,46.47
2023-04-09T17:58:21.494Z,46.28
2023-04-09T17:59:25.907Z,46.42
2023-04-09T18:00:28.500Z,46.47
2023-04-09T18:01:32.636Z,46.32
2023-04-09T18:02:36.109Z,46.36
2023-04-09T18:03:40.301Z,46.04
2023-04-09T18:04:44.136Z,45.98
2023-04-09T18:05:47.509Z,45.91
2023-04-09T18:06:50.924Z,45.73
2023-04-09T18:07:56.442Z,45.96
2023-04-09T18:08:59.367Z,45.69
2023-04-09T18:10:03.516Z,45.67
2023-04-09T18:11:12.158Z,45.43
2023-04-09T18:12:17.575Z,45.37
2023-04-09T18:13:21.321Z,45.36
2023-04-09T18:14:25.696Z,45.45
2023-04-09T18:15:28.615Z,45.23
2023-04-09T18:16:32.202Z,45.36
2023-04-09T18:17:34.684Z,45.37
2023-04-09T18:18:38.035Z,45.34
2023-04-09T18:19:40.732Z,45.25
2023-04-09T18:20:44.059Z,45.39
2023-04-09T18:21:47.469Z,45.38
2023-04-09T18:22:50.653Z,45.37
2023-04-09T18:23:53.957Z,45.09
2023-04-09T18:24:56.752Z,45.08
2023-04-09T18:26:00.066Z,44.83
2023-04-09T18:27:03.022Z,44.79
2023-04-09T18:28:07.596Z,45.00
2023-04-09T18:29:13.217Z,44.95
2023-04-09T18:30:16.569Z,44.59
2023-04-09T18:31:20.264Z,44.49
2023-04-09T18:32:23.772Z,44.61
2023-04-09T18:33:27.627Z,44.34
2023-04-09T18:34:36.875Z,44.54
2023-04-09T18:35:39.361Z,44.55
2023-04-09T18:36:42.936Z,44.48
2023-04-09T18:37:45.847Z,44.48
2023-04-09T18:38:49.453Z,44.29
2023-04-09T18:39:53.401Z,44.27
2023-04-09T18:40:56.672Z,44.16
2023-04-09T18:42:00.164Z,44.23
2023-04-09T18:43:03.600Z,44.17
2023-04-09T18:44:07.616Z,44.08
2023-04-09T18:45:13.340Z,44.03
2023-04-09T18:46:16.559Z,43.85
2023-04-09T18:47:20.055Z,43.81
2023-04-09T18:48:23.671Z,44.07
2023-04-09T18:49:27.013Z,43.88
2023-04-09T18:50:30.827Z,44.08
2023-04-09T18:51:33.850Z,44.24
2023-04-09T18:52:38.572Z,44.27
2023-04-09T18:53:41.661Z,44.07
2023-04-09T18:54:45.042Z,44.19
2023-04-09T18:55:48.453Z,44.36
2023-04-09T18:56:50.941Z,44.13
2023-04-09T18:58:15.123Z,44.16
2023-04-09T18:59:18.613Z,44.26
2023-04-09T19:00:22.320Z,44.37
2023-04-09T19:01:27.920Z,44.37
2023-04-09T19:02:30.558Z,44.23
2023-04-09T19:03:43.606Z,44.25
2023-04-09T19:04:47.973Z,44.42
2023-04-09T19:05:51.435Z,44.43
2023-04-09T19:06:55.013Z,44.46
2023-04-09T19:07:59.816Z,44.47
2023-04-09T19:09:02.636Z,44.46
2023-04-09T19:10:06.681Z,44.69
2023-04-09T19:11:09.370Z,44.61
2023-04-09T19:12:12.706Z,44.54
2023-04-09T19:13:15.073Z,44.59
2023-04-09T19:14:18.778Z,44.49
2023-04-09T19:15:26.207Z,44.59
2023-04-09T19:16:29.829Z,44.41
2023-04-09T19:17:34.972Z,44.59
2023-04-09T19:18:43.630Z,44.51
2023-04-09T19:19:51.380Z,44.51
2023-04-09T19:20:58.232Z,44.54
2023-04-09T19:22:02.386Z,44.52
2023-04-09T19:23:05.060Z,44.62
2023-04-09T19:24:08.702Z,44.63
2023-04-09T19:25:11.482Z,44.89
2023-04-09T19:26:14.909Z,44.64
2023-04-09T19:27:18.777Z,44.93
2023-04-09T19:28:21.523Z,44.69
2023-04-09T19:29:25.246Z,44.62
2023-04-09T19:30:30.089Z,44.44
2023-04-09T19:31:32.716Z,44.35
2023-04-09T19:32:36.306Z,44.19
2023-04-09T19:33:39.759Z,44.19
2023-04-09T19:34:48.228Z,44.07
2023-04-09T19:35:52.868Z,44.15
2023-04-09T19:36:56.807Z,44.20
2023-04-09T19:37:59.466Z,44.25
2023-04-09T19:39:03.402Z,44.20
2023-04-09T19:40:08.170Z,44.39
2023-04-09T19:41:11.880Z,44.61
2023-04-09T19:42:15.596Z,44.52
2023-04-09T19:43:18.061Z,44.61
2023-04-09T19:44:21.786Z,44.80
2023-04-09T19:45:26.049Z,44.57
2023-04-09T19:46:29.762Z,44.91
2023-04-09T19:47:34.826Z,44.74
2023-04-09T19:48:37.906Z,44.85
2023-04-09T19:49:41.778Z,44.86
2023-04-09T19:50:45.421Z,44.87
2023-04-09T19:51:50.224Z,44.97
2023-04-09T19:52:53.278Z,45.10
2023-04-09T19:53:57.389Z,44.98
2023-04-09T19:54:59.858Z,45.14
2023-04-09T19:56:03.772Z,45.13
2023-04-09T19:57:07.050Z,44.92
2023-04-09T19:58:10.424Z,45.07
2023-04-09T19:59:13.043Z,44.97
2023-04-09T20:00:16.651Z,45.01
2023-04-09T20:01:26.301Z,45.06
2023-04-09T20:02:31.845Z,45.13
2023-04-09T20:03:35.592Z,45.03
2023-04-09T20:04:38.175Z,45.20
2023-04-09T20:05:41.590Z,45.08
2023-04-09T20:06:45.759Z,44.99
2023-04-09T20:07:49.326Z,45.29
2023-04-09T20:08:53.395Z,45.16
2023-04-09T20:09:55.969Z,45.46
2023-04-09T20:10:59.280Z,45.21
2023-04-09T20:12:09.111Z,45.25
2023-04-09T20:13:12.548Z,45.30
2023-04-09T20:14:15.918Z,45.38
2023-04-09T20:15:20.646Z,45.17
2023-04-09T20:16:24.358Z,45.32
2023-04-09T20:17:27.230Z,45.18
2023-04-09T20:18:32.512Z,45.06
2023-04-09T20:19:35.275Z,45.23
2023-04-09T20:20:39.007Z,45.28
2023-04-09T20:21:43.569Z,45.33
2023-04-09T20:22:55.497Z,45.42
2023-04-09T20:24:00.692Z,45.23
2023-04-09T20:25:03.089Z,45.47
2023-04-09T20:26:09.820Z,45.38
2023-04-09T20:27:13.522Z,45.39
2023-04-09T20:28:16.959Z,45.34
2023-04-09T20:29:19.410Z,45.64
2023-04-09T20:30:24.213Z,45.29
2023-04-09T20:31:28.678Z,45.46
2023-04-09T20:32:31.250Z,45.46
2023-04-09T20:33:37.804Z,45.48
2023-04-09T20:34:43.979Z,45.41
2023-04-09T20:35:48.274Z,45.69
2023-04-09T20:36:51.053Z,45.64
2023-04-09T20:37:55.287Z,45.57
2023-04-09T20:38:58.964Z,45.50
2023-04-09T20:40:01.498Z,45.45
2023-04-09T20:41:05.077Z,45.41
2023-04-09T20:42:09.100Z,45.64
2023-04-09T20:43:11.537Z,45.65
2023-04-09T20:44:15.003Z,45.59
2023-04-09T20:45:18.696Z,45.58
2023-04-09T20:46:22.556Z,45.61
2023-04-09T20:47:26.045Z,45.94
2023-04-09T20:48:31.839Z,45.80
2023-04-09T20:49:36.723Z,45.67
2023-04-09T20:50:40.812Z,45.71
2023-04-09T20:51:44.864Z,45.53
2023-04-09T20:52:48.001Z,45.55
2023-04-09T20:53:51.396Z,45.68
2023-04-09T20:54:54.008Z,45.83
2023-04-09T20:55:57.917Z,45.85
2023-04-09T20:57:05.693Z,45.62
2023-04-09T20:58:08.357Z,45.69
2023-04-09T20:59:12.107Z,45.51
2023-04-09T21:00:15.924Z,45.69
2023-04-09T21:01:27.285Z,45.58
2023-04-09T21:02:30.294Z,45.77
2023-04-09T21:03:34.902Z,45.71
2023-04-09T21:04:38.746Z,45.64
2023-04-09T21:05:42.210Z,45.68
2023-04-09T21:06:45.521Z,45.43
2023-04-09T21:07:47.998Z,45.59
2023-04-09T21:08:52.796Z,45.81
2023-04-09T21:09:56.591Z,45.69
2023-04-09T21:11:00.406Z,45.43
2023-04-09T21:12:02.950Z,45.66
2023-04-09T21:13:06.840Z,45.38
2023-04-09T21:14:11.234Z,45.74
2023-04-09T21:15:13.692Z,45.46
2023-04-09T21:16:19.085Z,45.70
2023-04-09T21:17:21.446Z,45.77
2023-04-09T21:18:25.237Z,45.68
2023-04-09T21:19:27.905Z,45.79
2023-04-09T21:20:32.615Z,45.64
2023-04-09T21:21:36.319Z,45.75
2023-04-09T21:22:38.787Z,45.65
2023-04-09T21:23:42.754Z,45.64
2023-04-09T21:24:45.159Z,45.63
2023-04-09T21:25:48.561Z,45.64
2023-04-09T21:26:52.353Z,45.71
2023-04-09T21:27:56.136Z,45.64
2023-04-09T21:28:59.684Z,45.66
2023-04-09T21:30:02.085Z,45.75
2023-04-09T21:31:05.714Z,45.64
2023-04-09T21:32:08.564Z,45.72
2023-04-09T21:33:11.922Z,45.79
2023-04-09T21:34:14.711Z,45.63
2023-04-09T21:35:18.146Z,45.60
2023-04-09T21:36:22.359Z,45.42
2023-04-09T21:37:26.778Z,45.38
2023-04-09T21:38:29.249Z,45.30
2023-04-09T21:39:32.674Z,45.36
2023-04-09T21:40:36.058Z,45.25
2023-04-09T21:41:40.042Z,45.21
2023-04-09T21:42:42.829Z,45.34
2023-04-09T21:43:46.383Z,45.35
2023-04-09T21:44:48.857Z,45.14
2023-04-09T21:45:52.149Z,45.24
2023-04-09T21:46:54.687Z,45.31
2023-04-09T21:47:58.403Z,45.40
2023-04-09T21:49:01.185Z,45.23
2023-04-09T21:50:05.024Z,45.26
2023-04-09T21:51:10.860Z,45.21